createdAt,value
2022-10-06T00:05:20.346Z,100277.98
2022-10-06T00:14:56.379Z,100288.03
2022-10-06T00:24:29.190Z,100303.70
2022-10-06T00:34:03.725Z,100325.45
2022-10-06T00:43:39.774Z,100347.13
2022-10-06T00:53:11.397Z,100360.95
2022-10-06T01:02:47.695Z,100357.94
2022-10-06T01:12:20.331Z,100359.78
2022-10-06T01:21:54.858Z,100380.70
2022-10-06T01:31:30.973Z,100400.92
2022-10-06T01:41:02.928Z,100414.97
2022-10-06T01:50:39.172Z,100428.27
2022-10-06T02:00:12.013Z,100452.96
2022-10-06T02:09:47.433Z,100472.09
2022-10-06T02:19:19.866Z,100481.13
2022-10-06T02:28:56.134Z,100482.52
2022-10-06T02:38:29.245Z,100505.84
2022-10-06T02:48:04.555Z,100510.52
2022-10-06T02:57:37.040Z,100543.55
2022-10-06T03:07:10.999Z,100545.79
2022-10-06T03:16:45.594Z,100568.71
2022-10-06T03:26:21.191Z,100584.27
2022-10-06T03:35:53.736Z,100601.23
2022-10-06T03:45:28.324Z,100610.63
2022-10-06T03:55:02.077Z,100623.64
2022-10-06T04:04:36.615Z,100636.91
2022-10-06T04:14:09.427Z,100668.45
2022-10-06T04:23:44.507Z,100679.02
2022-10-06T04:33:16.983Z,100684.55
2022-10-06T04:42:51.502Z,100692.38
2022-10-06T04:52:24.121Z,100708.56
2022-10-06T05:01:58.719Z,100715.31
2022-10-06T05:11:32.041Z,100735.30
2022-10-06T05:21:07.017Z,100746.73
2022-10-06T05:30:39.759Z,100761.00
2022-10-06T05:40:15.937Z,100778.27
2022-10-06T05:49:51.203Z,100799.25
2022-10-06T05:59:22.989Z,100819.47
2022-10-06T06:08:57.205Z,100844.44
2022-10-06T06:18:31.408Z,100860.71
2022-10-06T06:28:05.477Z,100869.58
2022-10-06T06:37:39.717Z,100893.83
2022-10-06T06:47:15.277Z,100917.46
2022-10-06T06:56:49.539Z,100943.23
2022-10-06T07:06:25.840Z,100957.63
2022-10-06T07:15:56.991Z,100982.20
2022-10-06T07:25:33.269Z,100984.95
2022-10-06T07:35:06.543Z,100993.36
2022-10-06T07:44:43.079Z,101006.43
2022-10-06T07:45:45.582Z,101007.38
2022-10-06T07:55:20.595Z,101024.91
2022-10-06T08:04:53.780Z,101035.20
2022-10-06T08:14:27.686Z,101050.30
2022-10-06T08:24:01.895Z,101053.91
2022-10-06T08:33:38.106Z,101074.69
2022-10-06T08:43:11.355Z,101074.16
2022-10-06T08:52:48.072Z,101085.64
2022-10-06T08:53:50.408Z,101087.41
2022-10-06T08:54:52.913Z,101082.02
2022-10-06T08:55:55.398Z,101079.80
2022-10-06T08:56:59.502Z,101079.55
2022-10-06T09:06:31.010Z,101090.11
2022-10-06T09:07:33.584Z,101090.06
2022-10-06T09:08:36.073Z,101093.44
2022-10-06T09:09:38.562Z,101098.07
2022-10-06T09:10:41.048Z,101096.61
2022-10-06T09:11:45.147Z,101098.14
2022-10-06T09:12:49.090Z,101098.06
2022-10-06T09:13:51.382Z,101098.46
2022-10-06T09:14:53.898Z,101101.46
2022-10-06T09:15:56.414Z,101102.05
2022-10-06T09:16:58.845Z,101098.23
2022-10-06T09:18:01.445Z,101096.56
2022-10-06T09:19:08.482Z,101094.47
2022-10-06T09:20:09.386Z,101092.92
2022-10-06T09:21:11.750Z,101093.91
2022-10-06T09:22:15.830Z,101099.59
2022-10-06T09:23:18.147Z,101102.94
2022-10-06T09:24:22.248Z,101098.33
2022-10-06T09:25:24.608Z,101097.36
2022-10-06T09:26:28.624Z,101100.95
2022-10-06T09:27:32.598Z,101096.64
2022-10-06T09:28:35.038Z,101098.78
2022-10-06T09:29:37.402Z,101100.16
2022-10-06T09:30:39.921Z,101100.50
2022-10-06T09:31:42.444Z,101104.64
2022-10-06T09:32:46.482Z,101098.28
2022-10-06T09:33:48.843Z,101102.69
2022-10-06T09:34:51.305Z,101105.58
2022-10-06T09:35:55.365Z,101102.16
2022-10-06T09:37:00.993Z,101102.50
2022-10-06T09:38:03.289Z,101098.01
2022-10-06T09:47:34.658Z,101116.19
2022-10-06T09:48:36.999Z,101116.06
2022-10-06T09:49:39.468Z,101117.86
2022-10-06T09:50:42.028Z,101116.52
2022-10-06T09:51:44.457Z,101115.30
2022-10-06T09:52:46.981Z,101114.46
2022-10-06T09:53:51.044Z,101114.47
2022-10-06T09:54:55.009Z,101115.36
2022-10-06T09:55:57.344Z,101120.68
2022-10-06T09:56:59.838Z,101115.16
2022-10-06T09:58:02.278Z,101114.52
2022-10-06T09:59:06.352Z,101114.08
2022-10-06T10:00:10.335Z,101113.61
2022-10-06T10:01:12.672Z,101111.52
2022-10-06T10:02:16.646Z,101118.08
2022-10-06T10:03:19.046Z,101113.61
2022-10-06T10:04:21.910Z,101115.36
2022-10-06T10:05:23.957Z,101111.70
2022-10-06T10:06:28.008Z,101109.88
2022-10-06T10:07:30.326Z,101106.55
2022-10-06T10:09:38.312Z,101111.55
2022-10-06T10:10:42.255Z,101111.69
2022-10-06T10:11:46.195Z,101109.52
2022-10-06T10:12:48.506Z,101110.73
2022-10-06T10:13:52.532Z,101110.06
2022-10-06T10:14:54.899Z,101115.67
2022-10-06T10:15:59.007Z,101109.02
2022-10-06T10:17:01.286Z,101111.35
2022-10-06T10:18:05.359Z,101111.86
2022-10-06T10:19:07.727Z,101109.27
2022-10-06T10:20:12.124Z,101109.88
2022-10-06T10:21:14.497Z,101112.95
2022-10-06T10:22:18.547Z,101107.95
2022-10-06T10:23:24.116Z,101105.79
2022-10-06T10:24:24.766Z,101104.61
2022-10-06T10:25:28.916Z,101103.59
2022-10-06T10:26:31.314Z,101104.71
2022-10-06T10:27:33.797Z,101103.16
2022-10-06T10:28:36.300Z,101106.84
2022-10-06T10:29:38.721Z,101107.36
2022-10-06T10:30:42.808Z,101104.72
2022-10-06T10:31:46.255Z,101104.72
2022-10-06T10:32:48.548Z,101110.11
2022-10-06T10:33:59.156Z,101106.52
2022-10-06T10:34:56.780Z,101107.59
2022-10-06T10:35:58.945Z,101110.75
2022-10-06T10:37:01.413Z,101110.85
2022-10-06T10:38:03.895Z,101107.53
2022-10-06T10:39:06.390Z,101107.94
2022-10-06T10:40:10.424Z,101107.97
2022-10-06T10:41:12.823Z,101110.30
2022-10-06T10:42:16.977Z,101107.84
2022-10-06T10:43:19.233Z,101109.39
2022-10-06T10:44:21.767Z,101111.32
2022-10-06T10:45:24.313Z,101110.98
2022-10-06T10:46:26.874Z,101113.66
2022-10-06T10:47:31.095Z,101111.73
2022-10-06T10:48:33.479Z,101109.89
2022-10-06T10:49:35.920Z,101113.22
2022-10-06T10:50:38.413Z,101109.69
2022-10-06T10:51:40.907Z,101107.66
2022-10-06T10:52:44.948Z,101108.50
2022-10-06T10:53:47.281Z,101114.05
2022-10-06T10:54:49.761Z,101112.66
2022-10-06T10:55:53.864Z,101114.77
2022-10-06T10:56:56.202Z,101110.90
2022-10-06T10:57:58.727Z,101119.23
2022-10-06T11:07:33.084Z,101115.97
2022-10-06T11:08:35.524Z,101110.98
2022-10-06T11:09:38.009Z,101112.53
2022-10-06T11:10:40.524Z,101113.28
2022-10-06T11:11:47.505Z,101110.77
2022-10-06T11:12:46.926Z,101111.75
2022-10-06T11:13:49.437Z,101110.09
2022-10-06T11:14:53.490Z,101113.75
2022-10-06T11:15:57.447Z,101118.39
2022-10-06T11:17:01.391Z,101115.17
2022-10-06T11:18:03.748Z,101117.10
2022-10-06T11:19:06.207Z,101114.90
2022-10-06T11:20:08.648Z,101112.83
2022-10-06T11:21:11.087Z,101110.90
2022-10-06T11:22:13.682Z,101117.58
2022-10-06T11:23:16.131Z,101112.22
2022-10-06T11:24:18.578Z,101113.84
2022-10-06T11:25:21.026Z,101109.58
2022-10-06T11:26:23.444Z,101106.02
2022-10-06T11:27:25.911Z,101111.11
2022-10-06T11:28:29.975Z,101106.90
2022-10-06T11:29:33.885Z,101106.22
2022-10-06T11:30:36.232Z,101108.97
2022-10-06T11:31:38.721Z,101111.84
2022-10-06T11:32:41.205Z,101109.58
2022-10-06T11:33:43.673Z,101109.50
2022-10-06T11:34:46.143Z,101106.75
2022-10-06T11:35:50.212Z,101107.13
2022-10-06T11:36:54.233Z,101104.78
2022-10-06T11:37:58.117Z,101104.34
2022-10-06T11:39:02.084Z,101102.13
2022-10-06T11:40:06.093Z,101097.41
2022-10-06T11:41:09.720Z,101096.86
2022-10-06T11:42:10.809Z,101092.34
2022-10-06T11:43:13.229Z,101094.45
2022-10-06T11:44:17.354Z,101095.03
2022-10-06T11:45:19.711Z,101089.67
2022-10-06T11:46:23.803Z,101093.13
2022-10-06T11:47:34.805Z,101087.33
2022-10-06T11:48:28.598Z,101084.38
2022-10-06T11:49:32.617Z,101083.86
2022-10-06T11:50:34.970Z,101087.34
2022-10-06T11:51:39.011Z,101086.11
2022-10-06T11:52:42.966Z,101089.56
2022-10-06T11:53:45.313Z,101084.47
2022-10-06T11:54:47.845Z,101084.02
2022-10-06T11:55:50.268Z,101083.13
2022-10-06T11:56:54.396Z,101077.35
2022-10-06T11:57:58.395Z,101079.02
2022-10-06T11:59:00.710Z,101076.80
2022-10-06T12:00:04.831Z,101076.98
2022-10-06T12:01:08.711Z,101077.61
2022-10-06T12:02:11.251Z,101084.05
2022-10-06T12:03:15.215Z,101077.28
2022-10-06T12:04:23.522Z,101082.06
2022-10-06T12:06:23.879Z,101072.86
2022-10-06T12:07:26.341Z,101074.58
2022-10-06T12:08:28.778Z,101068.85
2022-10-06T12:09:32.915Z,101071.33
2022-10-06T12:10:36.779Z,101069.14
2022-10-06T12:11:39.111Z,101068.15
2022-10-06T12:12:43.199Z,101069.13
2022-10-06T12:15:06.350Z,101068.70
2022-10-06T12:17:10.515Z,101067.80
2022-10-06T12:17:57.147Z,101067.93
2022-10-06T12:18:59.680Z,101073.18
2022-10-06T12:20:02.169Z,101064.33
2022-10-06T12:21:04.666Z,101063.36
2022-10-06T12:22:08.766Z,101063.19
2022-10-06T12:23:11.204Z,101062.12
2022-10-06T12:25:16.209Z,101065.70
2022-10-06T12:26:20.261Z,101069.93
2022-10-06T12:27:24.954Z,101066.11
2022-10-06T12:28:26.755Z,101060.66
2022-10-06T12:29:29.016Z,101058.55
2022-10-06T12:30:31.513Z,101060.54
2022-10-06T12:31:33.917Z,101057.39
2022-10-06T12:32:36.405Z,101055.23
2022-10-06T12:33:40.519Z,101056.44
2022-10-06T12:34:42.891Z,101051.52
2022-10-06T12:35:45.365Z,101057.97
2022-10-06T12:36:47.898Z,101058.23
2022-10-06T12:37:54.185Z,101051.20
2022-10-06T12:38:52.837Z,101053.52
2022-10-06T12:39:56.921Z,101054.00
2022-10-06T12:41:01.073Z,101055.16
2022-10-06T12:42:04.993Z,101049.88
2022-10-06T12:43:07.350Z,101055.36
2022-10-06T12:44:09.784Z,101048.08
2022-10-06T12:45:12.322Z,101048.00
2022-10-06T12:46:16.573Z,101047.81
2022-10-06T12:47:18.742Z,101053.39
2022-10-06T12:48:21.248Z,101047.75
2022-10-06T12:49:25.356Z,101052.31
2022-10-06T12:50:29.312Z,101054.03
2022-10-06T12:52:35.713Z,101044.98
2022-10-06T12:53:39.679Z,101050.80
2022-10-06T12:54:42.079Z,101049.13
2022-10-06T12:55:44.493Z,101049.83
2022-10-06T12:56:46.957Z,101048.97
2022-10-06T12:57:51.094Z,101048.05
2022-10-06T12:58:53.460Z,101047.69
2022-10-06T12:59:55.921Z,101045.30
2022-10-06T13:00:58.406Z,101043.48
2022-10-06T13:02:00.932Z,101043.66
2022-10-06T13:03:03.337Z,101045.14
2022-10-06T13:04:05.856Z,101044.55
2022-10-06T13:05:09.926Z,101043.03
2022-10-06T13:06:13.917Z,101039.03
2022-10-06T13:07:16.311Z,101045.00
2022-10-06T13:08:18.703Z,101040.45
2022-10-06T13:09:21.204Z,101046.23
2022-10-06T13:10:25.277Z,101045.92
2022-10-06T13:11:27.663Z,101044.22
2022-10-06T13:12:30.150Z,101044.72
2022-10-06T13:13:32.637Z,101038.92
2022-10-06T13:14:36.703Z,101039.77
2022-10-06T13:15:40.648Z,101033.34
2022-10-06T13:16:43.083Z,101031.17
2022-10-06T13:17:45.499Z,101029.23
2022-10-06T13:18:48.050Z,101026.73
2022-10-06T13:19:52.215Z,101028.93
2022-10-06T13:20:56.096Z,101027.80
2022-10-06T13:21:58.534Z,101032.52
2022-10-06T13:23:01.069Z,101027.24
2022-10-06T13:24:03.549Z,101032.66
2022-10-06T13:25:06.040Z,101029.32
2022-10-06T13:26:10.151Z,101029.31
2022-10-06T13:27:12.514Z,101030.47
2022-10-06T13:36:45.377Z,101018.14
2022-10-06T13:37:47.856Z,101019.52
2022-10-06T13:38:50.386Z,101020.70
2022-10-06T13:39:52.898Z,101021.02
2022-10-06T13:40:57.092Z,101020.77
2022-10-06T13:42:00.489Z,101019.94
2022-10-06T13:43:02.873Z,101021.83
2022-10-06T13:44:05.460Z,101017.67
2022-10-06T13:45:07.959Z,101024.16
2022-10-06T13:46:12.172Z,101019.70
2022-10-06T13:47:14.504Z,101020.86
2022-10-06T13:48:17.022Z,101019.62
2022-10-06T13:49:19.506Z,101023.48
2022-10-06T13:50:21.992Z,101017.91
2022-10-06T13:51:24.436Z,101020.64
2022-10-06T13:52:26.922Z,101016.45
2022-10-06T13:53:29.409Z,101021.21
2022-10-06T13:54:31.963Z,101013.74
2022-10-06T13:55:34.425Z,101013.98
2022-10-06T13:56:36.912Z,101016.52
2022-10-06T13:57:39.429Z,101013.42
2022-10-06T13:58:43.446Z,101012.63
2022-10-06T13:59:45.804Z,101019.39
2022-10-06T14:00:48.347Z,101019.17
2022-10-06T14:01:52.467Z,101017.88
2022-10-06T14:02:54.950Z,101021.56
2022-10-06T14:03:57.275Z,101016.45
2022-10-06T14:05:00.177Z,101014.01
2022-10-06T14:06:03.816Z,101018.82
2022-10-06T14:07:06.122Z,101019.15
2022-10-06T14:08:08.689Z,101020.08
2022-10-06T14:09:11.138Z,101020.56
2022-10-06T14:10:13.664Z,101018.47
2022-10-06T14:11:17.705Z,101017.11
2022-10-06T14:12:21.664Z,101017.49
2022-10-06T14:13:24.136Z,101017.36
2022-10-06T14:14:26.603Z,101014.70
2022-10-06T14:15:30.746Z,101013.89
2022-10-06T14:16:33.061Z,101017.06
2022-10-06T14:17:35.539Z,101020.68
2022-10-06T14:18:38.069Z,101023.48
2022-10-06T14:19:40.534Z,101017.73
2022-10-06T14:20:44.623Z,101022.34
2022-10-06T14:21:47.008Z,101024.63
2022-10-06T14:22:49.546Z,101016.41
2022-10-06T14:23:52.040Z,101019.03
2022-10-06T14:24:56.110Z,101013.70
2022-10-06T14:25:58.501Z,101009.06
2022-10-06T14:27:00.943Z,101006.00
2022-10-06T14:28:03.525Z,101008.89
2022-10-06T14:29:05.957Z,101007.36
2022-10-06T14:30:10.056Z,101012.98
2022-10-06T14:31:14.754Z,101010.91
2022-10-06T14:32:18.016Z,101010.35
2022-10-06T14:33:21.983Z,101008.99
2022-10-06T14:34:25.930Z,101011.04
2022-10-06T14:35:30.055Z,101014.16
2022-10-06T14:36:34.027Z,101005.83
2022-10-06T14:37:36.373Z,101007.86
2022-10-06T14:38:40.437Z,101008.00
2022-10-06T14:39:42.819Z,101008.88
2022-10-06T14:40:45.279Z,101002.91
2022-10-06T14:41:47.912Z,101005.40
2022-10-06T14:42:50.238Z,101003.55
2022-10-06T14:43:52.743Z,101000.88
2022-10-06T14:44:57.118Z,101002.55
2022-10-06T14:46:01.422Z,100996.41
2022-10-06T14:47:01.634Z,100997.00
2022-10-06T14:48:04.094Z,100999.19
2022-10-06T14:49:06.560Z,100995.56
2022-10-06T14:50:09.053Z,101001.41
2022-10-06T14:51:13.149Z,100995.42
2022-10-06T14:52:15.559Z,100995.27
2022-10-06T14:53:18.016Z,100994.37
2022-10-06T14:54:20.490Z,100993.89
2022-10-06T14:55:23.018Z,100994.69
2022-10-06T14:56:27.184Z,100990.30
2022-10-06T14:57:31.103Z,100996.29
2022-10-06T14:58:33.491Z,100990.05
2022-10-06T14:59:35.967Z,100995.13
2022-10-06T15:00:38.482Z,100990.34
2022-10-06T15:01:40.980Z,100993.41
2022-10-06T15:02:43.599Z,100994.98
2022-10-06T15:03:49.125Z,100999.97
2022-10-06T15:04:48.487Z,100998.59
2022-10-06T15:05:50.982Z,100997.67
2022-10-06T15:06:55.133Z,100997.57
2022-10-06T15:07:57.432Z,100997.43
2022-10-06T15:08:59.980Z,100992.75
2022-10-06T15:10:02.567Z,100993.52
2022-10-06T15:11:08.885Z,100991.14
2022-10-06T15:12:11.157Z,100991.91
2022-10-06T15:13:15.320Z,100991.70
2022-10-06T15:14:17.577Z,100991.27
2022-10-06T15:15:21.664Z,100989.20
2022-10-06T15:16:24.019Z,100989.79
2022-10-06T15:17:28.118Z,100990.35
2022-10-06T15:18:32.142Z,100993.64
2022-10-06T15:19:36.080Z,100988.34
2022-10-06T15:20:38.437Z,100986.59
2022-10-06T15:21:42.594Z,100987.12
2022-10-06T15:22:44.925Z,100987.66
2022-10-06T15:23:47.428Z,100989.97
2022-10-06T15:24:49.910Z,100984.87
2022-10-06T15:25:52.425Z,100985.25
2022-10-06T15:26:56.479Z,100985.80
2022-10-06T15:27:58.865Z,100984.34
2022-10-06T15:29:01.310Z,100983.84
2022-10-06T15:30:03.803Z,100981.70
2022-10-06T15:31:08.027Z,100979.91
2022-10-06T15:32:11.920Z,100977.24
2022-10-06T15:33:15.964Z,100973.23
2022-10-06T15:34:19.917Z,100978.78
2022-10-06T15:35:22.257Z,100976.22
2022-10-06T15:36:25.746Z,100973.55
2022-10-06T15:37:29.747Z,100981.00
2022-10-06T15:38:32.347Z,100980.70
2022-10-06T15:39:34.798Z,100976.67
2022-10-06T15:40:37.325Z,100978.53
2022-10-06T15:41:41.407Z,100980.53
2022-10-06T15:42:45.378Z,100979.13
2022-10-06T15:43:47.761Z,100975.19
2022-10-06T15:44:51.888Z,100980.03
2022-10-06T15:45:54.224Z,100975.89
2022-10-06T15:46:56.902Z,100977.28
2022-10-06T15:47:59.153Z,100980.53
2022-10-06T15:49:03.211Z,100979.72
2022-10-06T15:50:07.207Z,100978.92
2022-10-06T15:51:09.571Z,100979.02
2022-10-06T15:52:12.123Z,100985.00
2022-10-06T15:53:16.178Z,100984.20
2022-10-06T15:54:18.542Z,100983.23
2022-10-06T15:55:21.068Z,100982.13
2022-10-06T15:56:25.150Z,100981.41
2022-10-06T15:57:29.123Z,100980.08
2022-10-06T15:58:31.437Z,100980.81
2022-10-06T15:59:33.917Z,100975.52
2022-10-06T16:00:36.352Z,100982.55
2022-10-06T16:01:40.491Z,100982.63
2022-10-06T16:02:42.861Z,100979.14
2022-10-06T16:03:45.225Z,100976.17
2022-10-06T16:04:47.628Z,100974.59
2022-10-06T16:05:51.693Z,100978.05
2022-10-06T16:06:54.043Z,100981.02
2022-10-06T16:07:56.512Z,100978.67
2022-10-06T16:08:58.941Z,100979.69
2022-10-06T16:10:01.398Z,100981.17
2022-10-06T16:11:05.459Z,100979.52
2022-10-06T16:12:07.844Z,100974.80
2022-10-06T16:13:11.869Z,100976.61
2022-10-06T16:14:14.251Z,100975.70
2022-10-06T16:15:16.671Z,100979.23
2022-10-06T16:16:19.237Z,100975.31
2022-10-06T16:17:21.587Z,100976.56
2022-10-06T16:18:25.674Z,100976.05
2022-10-06T16:19:29.627Z,100981.14
2022-10-06T16:20:32.914Z,100983.28
2022-10-06T16:21:35.241Z,100980.38
2022-10-06T16:22:38.016Z,100974.72
2022-10-06T16:23:40.179Z,100980.38
2022-10-06T16:24:42.634Z,100981.90
2022-10-06T16:25:46.685Z,100980.07
2022-10-06T16:26:49.008Z,100974.14
2022-10-06T16:27:52.431Z,100978.83
2022-10-06T16:28:56.414Z,100978.75
2022-10-06T16:30:00.365Z,100979.04
2022-10-06T16:31:02.726Z,100973.73
2022-10-06T16:32:05.115Z,100973.88
2022-10-06T16:33:07.578Z,100974.94
2022-10-06T16:34:09.991Z,100975.91
2022-10-06T16:35:16.087Z,100977.95
2022-10-06T16:36:14.889Z,100976.16
2022-10-06T16:37:17.364Z,100982.16
2022-10-06T16:38:19.785Z,100977.89
2022-10-06T16:39:22.285Z,100976.97
2022-10-06T16:40:24.697Z,100975.44
2022-10-06T16:41:27.195Z,100977.05
2022-10-06T16:42:29.628Z,100974.23
2022-10-06T16:43:33.724Z,100979.87
2022-10-06T16:44:35.993Z,100974.90
2022-10-06T16:45:40.101Z,100977.63
2022-10-06T16:55:10.904Z,100978.19
2022-10-06T17:04:42.233Z,100980.14
2022-10-06T17:14:15.236Z,100982.72
2022-10-06T17:23:50.066Z,100989.42
2022-10-06T17:33:21.561Z,100990.34
2022-10-06T17:42:56.826Z,100998.80
2022-10-06T17:52:30.723Z,100997.47
2022-10-06T18:02:03.814Z,100990.61
2022-10-06T18:11:36.200Z,100990.19
2022-10-06T18:21:10.638Z,100996.73
2022-10-06T18:30:45.563Z,101006.34
2022-10-06T18:40:18.439Z,100997.44
2022-10-06T18:49:52.468Z,100987.52
2022-10-06T18:59:26.680Z,100980.71
2022-10-06T19:09:02.547Z,100990.56
2022-10-06T19:18:34.884Z,100985.11
2022-10-06T19:19:38.982Z,100991.49
2022-10-06T19:29:10.262Z,101007.86
2022-10-06T19:38:43.825Z,101019.72
2022-10-06T19:48:17.865Z,101007.10
2022-10-06T19:57:51.789Z,101011.77
2022-10-06T20:07:26.019Z,101013.69
2022-10-06T20:17:01.683Z,101017.39
2022-10-06T20:26:34.464Z,101011.91
2022-10-06T20:36:06.507Z,101012.84
2022-10-06T20:45:42.418Z,101014.29
2022-10-06T20:55:14.359Z,101005.67
2022-10-06T21:04:50.097Z,101000.92
2022-10-06T21:14:23.944Z,100996.64
2022-10-06T21:23:56.471Z,100992.26
2022-10-06T21:33:30.562Z,100984.02
2022-10-06T21:43:05.535Z,100981.38
2022-10-06T21:52:39.103Z,100983.80
2022-10-06T22:02:11.340Z,100979.36
2022-10-06T22:11:44.776Z,100966.55
2022-10-06T22:21:18.710Z,100961.55
2022-10-06T22:30:54.330Z,100964.80
2022-10-06T22:40:27.411Z,100958.64
2022-10-06T22:49:59.319Z,100949.09
2022-10-06T22:59:34.885Z,100935.26
2022-10-06T23:09:07.040Z,100934.20
2022-10-06T23:18:40.921Z,100923.23
2022-10-06T23:28:16.714Z,100910.20
2022-10-06T23:37:48.840Z,100907.08
2022-10-06T23:47:25.829Z,100903.71
2022-10-06T23:56:56.460Z,100901.13
